createdAt,value
2022-11-14T00:00:23.214Z,89.77
2022-11-14T00:04:47.086Z,90.24
2022-11-14T00:09:08.554Z,90.30
2022-11-14T00:13:30.275Z,90.25
2022-11-14T00:17:53.351Z,90.55
2022-11-14T00:22:15.367Z,90.66
2022-11-14T00:26:36.785Z,90.84
2022-11-14T00:30:58.037Z,90.82
2022-11-14T00:35:21.112Z,90.86
2022-11-14T00:39:42.816Z,90.67
2022-11-14T00:44:04.459Z,90.84
2022-11-14T00:48:25.975Z,90.91
2022-11-14T00:52:49.190Z,91.43
2022-11-14T00:57:10.767Z,91.54
2022-11-14T01:01:32.595Z,91.32
2022-11-14T01:05:53.919Z,91.38
2022-11-14T01:10:17.468Z,91.51
2022-11-14T01:14:41.128Z,91.81
2022-11-14T01:19:03.222Z,91.89
2022-11-14T01:23:25.005Z,92.24
2022-11-14T01:27:48.013Z,91.98
2022-11-14T01:32:09.807Z,92.01
2022-11-14T01:36:31.188Z,92.11
2022-11-14T01:40:52.926Z,91.92
2022-11-14T01:45:57.096Z,91.90
2022-11-14T01:50:20.284Z,91.85
2022-11-14T01:54:46.084Z,91.70
2022-11-14T01:59:12.528Z,91.97
2022-11-14T02:03:37.101Z,92.28
2022-11-14T02:07:59.857Z,92.21
2022-11-14T02:12:21.422Z,92.51
2022-11-14T02:16:55.711Z,92.59
2022-11-14T02:21:27.046Z,92.77
2022-11-14T02:25:48.823Z,92.51
2022-11-14T02:30:13.864Z,92.42
2022-11-14T02:34:36.027Z,92.19
2022-11-14T02:38:59.059Z,92.37
2022-11-14T02:43:21.117Z,92.15
2022-11-14T02:47:42.423Z,91.85
2022-11-14T02:52:04.358Z,92.09
2022-11-14T02:56:27.812Z,92.05
2022-11-14T03:01:14.093Z,92.22
2022-11-14T03:05:30.893Z,91.95
2022-11-14T03:09:52.746Z,91.60
2022-11-14T03:14:15.744Z,91.41
2022-11-14T03:18:38.088Z,91.03
2022-11-14T03:23:00.408Z,90.76
2022-11-14T03:27:21.962Z,91.05
2022-11-14T03:31:44.775Z,91.05
2022-11-14T03:36:07.780Z,91.89
2022-11-14T03:40:29.455Z,92.01
2022-11-14T03:44:50.891Z,92.04
2022-11-14T03:49:13.710Z,91.58
2022-11-14T03:53:35.587Z,91.65
2022-11-14T03:57:57.282Z,91.40
2022-11-14T04:02:18.935Z,91.48
2022-11-14T04:06:42.349Z,91.30
2022-11-14T04:11:03.901Z,91.59
2022-11-14T04:15:25.486Z,91.42
2022-11-14T04:19:47.123Z,91.57
2022-11-14T04:24:11.310Z,91.50
2022-11-14T04:28:33.080Z,91.71
2022-11-14T04:32:55.078Z,91.63
2022-11-14T04:37:16.796Z,91.88
2022-11-14T04:41:39.880Z,91.93
2022-11-14T04:46:01.417Z,92.04
2022-11-14T04:50:23.087Z,91.90
2022-11-14T04:54:44.625Z,91.64
2022-11-14T04:59:07.737Z,91.60
2022-11-14T05:03:29.054Z,91.44
2022-11-14T05:07:50.362Z,91.37
2022-11-14T05:12:12.139Z,91.61
2022-11-14T05:16:35.360Z,91.54
2022-11-14T05:20:59.584Z,92.08
2022-11-14T05:25:20.947Z,91.96
2022-11-14T05:29:42.477Z,92.10
2022-11-14T05:34:05.482Z,91.91
2022-11-14T05:38:26.950Z,91.92
2022-11-14T05:42:48.373Z,91.57
2022-11-14T05:47:10.079Z,91.54
2022-11-14T05:51:33.169Z,92.27
2022-11-14T05:55:55.648Z,92.45
2022-11-14T06:00:18.129Z,92.40
2022-11-14T06:04:39.580Z,92.34
2022-11-14T06:09:03.107Z,92.54
2022-11-14T06:13:24.945Z,92.79
2022-11-14T06:17:46.843Z,92.74
2022-11-14T06:22:08.558Z,92.66
2022-11-14T06:26:33.019Z,93.05
2022-11-14T06:30:58.904Z,92.70
2022-11-14T06:35:20.652Z,92.64
2022-11-14T06:39:42.255Z,92.65
2022-11-14T06:44:05.689Z,92.63
2022-11-14T06:48:27.871Z,92.81
2022-11-14T06:52:50.006Z,92.83
2022-11-14T06:57:11.387Z,92.83
2022-11-14T07:01:34.463Z,92.94
2022-11-14T07:05:59.092Z,93.09
2022-11-14T07:10:20.560Z,92.85
2022-11-14T07:14:42.799Z,93.10
2022-11-14T07:19:09.190Z,92.86
2022-11-14T07:23:31.999Z,92.80
2022-11-14T07:27:53.753Z,92.95
2022-11-14T07:32:15.526Z,92.98
2022-11-14T07:36:38.540Z,92.85
2022-11-14T07:41:01.341Z,92.72
2022-11-14T07:45:22.956Z,92.84
2022-11-14T07:49:44.439Z,92.11
2022-11-14T07:54:07.661Z,92.23
2022-11-14T07:58:29.270Z,92.21
2022-11-14T08:02:50.845Z,92.24
2022-11-14T08:07:12.690Z,92.39
2022-11-14T08:11:50.901Z,92.25
2022-11-14T08:16:14.114Z,91.98
2022-11-14T08:20:35.705Z,91.96
2022-11-14T08:24:57.317Z,92.39
2022-11-14T08:29:20.345Z,92.38
2022-11-14T08:33:41.667Z,92.01
2022-11-14T08:38:03.338Z,91.95
2022-11-14T08:42:24.863Z,91.65
2022-11-14T08:46:48.130Z,90.99
2022-11-14T08:51:09.514Z,91.72
2022-11-14T08:55:31.160Z,91.70
2022-11-14T08:59:52.718Z,91.27
2022-11-14T09:04:16.474Z,90.86
2022-11-14T09:08:38.762Z,90.67
2022-11-14T09:13:02.095Z,90.40
2022-11-14T09:17:23.341Z,89.80
2022-11-14T09:21:46.332Z,90.01
2022-11-14T09:26:08.784Z,89.72
2022-11-14T09:30:30.451Z,89.22
2022-11-14T09:34:51.854Z,89.32
2022-11-14T09:39:14.841Z,89.06
2022-11-14T09:44:14.164Z,89.14
2022-11-14T09:48:38.858Z,88.96
2022-11-14T09:53:06.109Z,88.46
2022-11-14T09:57:30.328Z,88.20
2022-11-14T10:02:03.404Z,88.09
2022-11-14T10:06:32.130Z,87.60
2022-11-14T10:10:55.794Z,87.09
2022-11-14T10:15:26.545Z,86.78
2022-11-14T10:20:01.758Z,86.53
2022-11-14T10:24:39.651Z,86.77
2022-11-14T10:29:28.904Z,86.94
2022-11-14T10:34:00.765Z,86.95
2022-11-14T10:38:28.337Z,86.79
2022-11-14T10:42:55.771Z,86.52
2022-11-14T10:47:20.882Z,86.03
2022-11-14T10:51:47.581Z,85.63
2022-11-14T10:56:12.681Z,86.26
2022-11-14T11:00:34.336Z,85.63
2022-11-14T11:05:12.935Z,85.74
2022-11-14T11:10:03.779Z,84.96
2022-11-14T11:14:25.487Z,84.63
2022-11-14T11:18:50.635Z,85.30
2022-11-14T11:23:19.966Z,84.66
2022-11-14T11:27:43.045Z,84.50
2022-11-14T11:32:04.576Z,84.16
2022-11-14T11:36:27.791Z,84.31
2022-11-14T11:40:52.468Z,84.58
2022-11-14T11:45:18.494Z,84.83
2022-11-14T11:49:51.740Z,84.18
2022-11-14T11:54:19.808Z,84.38
2022-11-14T11:58:46.777Z,84.95
2022-11-14T12:03:20.274Z,84.87
2022-11-14T12:07:47.671Z,84.63
2022-11-14T12:12:18.482Z,84.91
2022-11-14T12:17:04.681Z,84.73
2022-11-14T12:21:45.723Z,84.48
2022-11-14T12:26:21.270Z,83.97
2022-11-14T12:30:49.360Z,83.69
2022-11-14T12:35:19.750Z,83.41
2022-11-14T12:39:43.277Z,83.02
2022-11-14T12:44:19.864Z,82.88
2022-11-14T12:48:43.277Z,81.92
2022-11-14T12:53:04.862Z,82.38
2022-11-14T12:57:51.556Z,81.48
2022-11-14T13:02:28.490Z,81.78
2022-11-14T13:07:01.617Z,81.75
2022-11-14T13:11:55.498Z,81.08
2022-11-14T13:16:45.267Z,80.45
2022-11-14T13:21:34.726Z,80.11
2022-11-14T13:26:29.012Z,79.79
2022-11-14T13:31:20.391Z,79.52
2022-11-14T13:36:05.738Z,79.81
2022-11-14T13:40:35.853Z,79.67
2022-11-14T13:45:41.822Z,79.59
2022-11-14T13:50:06.603Z,80.03
2022-11-14T13:54:29.838Z,79.88
2022-11-14T13:59:09.051Z,80.14
2022-11-14T14:03:55.477Z,80.33
2022-11-14T14:08:29.613Z,80.39
2022-11-14T14:13:05.895Z,80.46
2022-11-14T14:17:35.054Z,80.56
2022-11-14T14:22:04.017Z,80.57
2022-11-14T14:26:34.723Z,80.21
2022-11-14T14:31:04.515Z,80.66
2022-11-14T14:35:27.791Z,80.88
2022-11-14T14:40:00.093Z,80.79
2022-11-14T14:44:26.586Z,81.36
2022-11-14T14:48:49.647Z,81.37
2022-11-14T14:53:21.388Z,81.78
2022-11-14T14:57:43.222Z,81.91
2022-11-14T15:02:04.888Z,82.45
2022-11-14T15:06:31.344Z,82.24
2022-11-14T15:10:59.540Z,82.87
2022-11-14T15:15:25.720Z,82.92
2022-11-14T15:19:48.127Z,83.37
2022-11-14T15:24:17.754Z,83.82
2022-11-14T15:28:39.315Z,84.11
2022-11-14T15:33:02.380Z,84.20
2022-11-14T15:37:25.216Z,84.29
2022-11-14T15:41:48.351Z,84.09
2022-11-14T15:46:29.172Z,83.86
2022-11-14T15:50:51.670Z,83.69
2022-11-14T15:55:16.469Z,83.49
2022-11-14T15:59:39.807Z,84.03
2022-11-14T16:04:01.849Z,83.72
2022-11-14T16:08:23.246Z,83.54
2022-11-14T16:12:50.944Z,84.27
2022-11-14T16:17:17.018Z,84.42
2022-11-14T16:21:38.769Z,84.75
2022-11-14T16:26:00.042Z,85.40
2022-11-14T16:30:23.428Z,85.05
2022-11-14T16:34:46.427Z,84.90
2022-11-14T16:39:11.442Z,85.10
2022-11-14T16:43:33.581Z,85.09
2022-11-14T16:47:55.274Z,85.32
2022-11-14T16:52:19.081Z,85.53
2022-11-14T16:56:41.194Z,85.41
2022-11-14T17:01:02.841Z,85.41
2022-11-14T17:05:24.767Z,85.43
2022-11-14T17:09:48.236Z,85.52
2022-11-14T17:14:09.769Z,85.02
2022-11-14T17:18:35.650Z,85.10
2022-11-14T17:23:00.330Z,85.14
2022-11-14T17:27:23.403Z,85.05
2022-11-14T17:31:47.197Z,84.86
2022-11-14T17:36:11.605Z,84.67
2022-11-14T17:40:33.353Z,84.83
2022-11-14T17:44:58.600Z,84.98
2022-11-14T17:49:20.454Z,84.47
2022-11-14T17:53:45.267Z,84.72
2022-11-14T17:58:07.522Z,84.59
2022-11-14T18:02:30.512Z,84.61
2022-11-14T18:06:52.213Z,84.12
2022-11-14T18:11:15.324Z,84.45
2022-11-14T18:15:38.999Z,84.70
2022-11-14T18:20:01.844Z,84.38
2022-11-14T18:24:23.953Z,84.64
2022-11-14T18:28:45.995Z,84.49
2022-11-14T18:33:07.466Z,84.28
2022-11-14T18:37:32.607Z,84.17
2022-11-14T18:41:54.598Z,83.93
2022-11-14T18:46:18.011Z,83.77
2022-11-14T18:50:39.955Z,84.02
2022-11-14T18:55:14.992Z,83.85
2022-11-14T18:59:36.527Z,83.77
2022-11-14T19:04:00.036Z,83.50
2022-11-14T19:08:21.778Z,83.41
2022-11-14T19:12:47.812Z,83.28
2022-11-14T19:17:09.528Z,82.94
2022-11-14T19:21:31.669Z,82.64
2022-11-14T19:25:54.057Z,82.47
2022-11-14T19:30:18.175Z,82.65
2022-11-14T19:34:39.516Z,82.56
2022-11-14T19:39:02.749Z,82.60
2022-11-14T19:43:26.106Z,82.58
2022-11-14T19:47:48.813Z,82.69
2022-11-14T19:52:10.129Z,82.72
2022-11-14T19:56:31.844Z,82.97
2022-11-14T20:00:53.944Z,83.67
2022-11-14T20:05:17.098Z,84.37
2022-11-14T20:09:38.854Z,84.70
2022-11-14T20:14:02.276Z,84.67
2022-11-14T20:18:24.445Z,84.69
2022-11-14T20:22:47.454Z,84.98
2022-11-14T20:27:09.645Z,85.38
2022-11-14T20:31:32.231Z,85.50
2022-11-14T20:35:53.632Z,85.89
2022-11-14T20:40:17.360Z,85.94
2022-11-14T20:44:39.374Z,85.81
2022-11-14T20:49:01.213Z,86.29
2022-11-14T20:53:23.548Z,86.53
2022-11-14T20:57:46.628Z,87.16
2022-11-14T21:02:08.683Z,87.12
2022-11-14T21:06:30.239Z,87.28
2022-11-14T21:10:59.369Z,87.55
2022-11-14T21:15:22.489Z,87.68
2022-11-14T21:19:43.880Z,87.65
2022-11-14T21:24:06.654Z,87.62
2022-11-14T21:28:29.916Z,87.64
2022-11-14T21:32:55.897Z,87.92
2022-11-14T21:37:17.252Z,88.00
2022-11-14T21:41:39.129Z,88.11
2022-11-14T21:46:02.611Z,88.09
2022-11-14T21:50:25.356Z,88.16
2022-11-14T21:54:46.754Z,88.05
2022-11-14T21:59:14.412Z,88.52
2022-11-14T22:03:54.292Z,88.43
2022-11-14T22:08:17.962Z,88.13
2022-11-14T22:12:39.654Z,88.15
2022-11-14T22:17:01.174Z,88.51
2022-11-14T22:21:23.406Z,88.36
2022-11-14T22:25:53.963Z,88.41
2022-11-14T22:30:15.399Z,88.45
2022-11-14T22:34:36.844Z,88.86
2022-11-14T22:38:58.868Z,89.00
2022-11-14T22:43:22.436Z,89.31
2022-11-14T22:47:44.063Z,89.51
2022-11-14T22:52:05.680Z,89.49
2022-11-14T22:56:29.288Z,89.73
2022-11-14T23:00:52.800Z,89.97
2022-11-14T23:05:14.206Z,89.80
2022-11-14T23:09:35.816Z,89.67
2022-11-14T23:13:59.305Z,89.43
2022-11-14T23:18:24.058Z,89.62
2022-11-14T23:22:46.001Z,89.61
2022-11-14T23:27:07.807Z,89.48
2022-11-14T23:31:29.214Z,89.61
2022-11-14T23:35:52.234Z,89.84
2022-11-14T23:40:13.828Z,89.94
2022-11-14T23:44:35.422Z,89.97
2022-11-14T23:48:57.057Z,90.12
2022-11-14T23:53:20.683Z,89.99
2022-11-14T23:57:42.537Z,89.97
